Time;durP1;ratioP1;P1;durP2;ratioP2;P2;SDS_P1;SDS_P2;PMS_P1;PMS_P2;Temp;Humidity;BMP_temperature;BMP_pressure;BME280_temperature;BME280_humidity;BME280_pressure;Samples;Min_cycle;Max_cycle;Signal;HPM_P1;HPM_P2
2022/07/08 00:00:54;;;;;;;3.60;3.30;;;;;;;;;;5032298;28;20467;-74
2022/07/08 00:03:19;;;;;;;3.92;3.53;;;;;;;;;;5032559;28;21174;-74
2022/07/08 00:05:45;;;;;;;3.45;3.20;;;;;;;;;;5037362;28;20611;-74
2022/07/08 00:08:10;;;;;;;3.85;3.65;;;;;;;;;;5038459;28;20178;-74
2022/07/08 00:10:36;;;;;;;4.63;3.92;;;;;;;;;;5038005;28;20522;-74
2022/07/08 00:13:01;;;;;;;5.30;4.80;;;;;;;;;;5037943;28;20036;-74
2022/07/08 00:15:27;;;;;;;7.22;4.35;;;;;;;;;;5025598;28;20428;-74
2022/07/08 00:17:52;;;;;;;4.88;4.25;;;;;;;;;;5037957;28;20025;-74
2022/07/08 00:20:17;;;;;;;5.22;4.72;;;;;;;;;;5030990;28;20033;-75
2022/07/08 00:22:43;;;;;;;5.32;4.30;;;;;;;;;;5037137;28;20420;-74
2022/07/08 00:25:08;;;;;;;4.50;3.33;;;;;;;;;;5037923;28;20021;-75
2022/07/08 00:27:33;;;;;;;4.00;3.60;;;;;;;;;;5037755;28;20795;-73
2022/07/08 00:29:59;;;;;;;3.80;3.50;;;;;;;;;;5038239;28;20040;-74
2022/07/08 00:32:24;;;;;;;3.63;3.33;;;;;;;;;;5038909;28;20035;-74
2022/07/08 00:34:50;;;;;;;4.32;3.58;;;;;;;;;;5038564;28;20032;-75
2022/07/08 00:37:15;;;;;;;3.75;3.42;;;;;;;;;;5039574;28;20040;-74
2022/07/08 00:39:40;;;;;;;4.13;3.78;;;;;;;;;;5031823;28;20433;-74
2022/07/08 00:42:06;;;;;;;4.22;3.92;;;;;;;;;;5035955;28;20047;-74
2022/07/08 00:44:32;;;;;;;3.70;3.40;;;;;;;;;;5031916;28;20421;-75
2022/07/08 00:46:57;;;;;;;4.65;3.40;;;;;;;;;;5039938;28;20108;-75
2022/07/08 00:49:22;;;;;;;3.25;3.00;;;;;;;;;;5041721;28;20036;-75
2022/07/08 00:51:48;;;;;;;4.38;3.30;;;;;;;;;;5041753;28;20083;-75
2022/07/08 00:54:15;;;;;;;3.60;3.30;;;;;;;;;;5043452;28;20021;-75
2022/07/08 00:56:40;;;;;;;4.63;3.13;;;;;;;;;;5042437;28;20044;-75
2022/07/08 00:59:07;;;;;;;3.60;3.03;;;;;;;;;;5040971;28;20425;-75
2022/07/08 01:01:32;;;;;;;3.45;3.15;;;;;;;;;;5041312;28;20028;-74
2022/07/08 01:03:58;;;;;;;2.92;2.65;;;;;;;;;;5041621;28;20021;-75
2022/07/08 01:06:23;;;;;;;6.22;3.10;;;;;;;;;;5040787;28;20039;-74
2022/07/08 01:08:49;;;;;;;3.63;3.25;;;;;;;;;;5042834;28;20124;-74
2022/07/08 01:11:14;;;;;;;3.50;3.28;;;;;;;;;;5041432;28;20056;-74
2022/07/08 01:13:40;;;;;;;3.45;2.67;;;;;;;;;;5037271;28;20057;-74
2022/07/08 01:16:06;;;;;;;3.25;2.88;;;;;;;;;;5034160;28;20064;-74
2022/07/08 01:18:31;;;;;;;3.58;3.28;;;;;;;;;;5041231;28;20036;-74
2022/07/08 01:20:57;;;;;;;5.25;3.22;;;;;;;;;;5033126;28;20408;-74
2022/07/08 01:23:22;;;;;;;3.40;3.20;;;;;;;;;;5037587;28;20017;-75
2022/07/08 01:25:48;;;;;;;3.95;3.70;;;;;;;;;;5036507;28;20455;-74
2022/07/08 01:28:14;;;;;;;3.67;3.47;;;;;;;;;;5033460;28;20140;-74
2022/07/08 01:30:39;;;;;;;4.22;3.92;;;;;;;;;;5033152;28;20060;-74
2022/07/08 01:33:05;;;;;;;4.40;4.00;;;;;;;;;;5031945;28;20070;-74
2022/07/08 01:35:30;;;;;;;4.10;3.70;;;;;;;;;;5022408;28;20086;-74
2022/07/08 01:37:56;;;;;;;3.67;3.38;;;;;;;;;;5041202;28;20047;-74
2022/07/08 01:40:21;;;;;;;3.72;3.42;;;;;;;;;;5040000;28;20029;-74
2022/07/08 01:42:46;;;;;;;4.50;4.10;;;;;;;;;;5038978;28;20347;-73
2022/07/08 01:45:12;;;;;;;4.65;4.25;;;;;;;;;;5029866;28;20076;-73
2022/07/08 01:47:37;;;;;;;4.68;4.28;;;;;;;;;;5038799;28;20385;-74
2022/07/08 01:50:03;;;;;;;4.40;4.10;;;;;;;;;;5029821;28;20152;-74
2022/07/08 01:52:28;;;;;;;4.55;4.20;;;;;;;;;;5040399;28;20041;-74
2022/07/08 01:54:53;;;;;;;4.13;3.72;;;;;;;;;;5039943;28;20024;-74
2022/07/08 01:57:21;;;;;;;4.63;3.92;;;;;;;;;;5040284;28;20037;-74
2022/07/08 01:59:47;;;;;;;5.15;3.85;;;;;;;;;;5038986;28;20047;-73
2022/07/08 02:02:13;;;;;;;4.43;3.90;;;;;;;;;;5040391;28;20437;-74
2022/07/08 02:04:38;;;;;;;4.82;4.53;;;;;;;;;;5038944;28;20368;-76
2022/07/08 02:07:04;;;;;;;6.00;4.53;;;;;;;;;;5039503;28;20033;-73
2022/07/08 02:09:29;;;;;;;4.45;4.05;;;;;;;;;;5030283;28;20024;-72
2022/07/08 02:14:39;;;;;;;4.18;3.67;;;;;;;;;;5035823;28;20167;-74
2022/07/08 02:17:04;;;;;;;4.50;4.10;;;;;;;;;;5032620;28;20127;-74
2022/07/08 02:19:30;;;;;;;5.43;4.05;;;;;;;;;;5040446;28;20344;-74
2022/07/08 02:21:55;;;;;;;4.38;4.03;;;;;;;;;;5040322;28;20509;-73
2022/07/08 02:24:21;;;;;;;5.05;4.20;;;;;;;;;;5040021;28;20029;-72
2022/07/08 02:26:46;;;;;;;4.35;4.05;;;;;;;;;;5030442;28;20425;-74
2022/07/08 02:29:11;;;;;;;4.60;4.20;;;;;;;;;;5031291;28;20044;-74
2022/07/08 02:31:37;;;;;;;3.83;3.60;;;;;;;;;;5036141;28;20139;-74
2022/07/08 02:34:02;;;;;;;4.55;4.07;;;;;;;;;;5039689;28;20036;-73
2022/07/08 02:36:27;;;;;;;4.90;4.50;;;;;;;;;;5038708;28;20048;-74
2022/07/08 02:38:53;;;;;;;6.38;4.10;;;;;;;;;;5038871;28;20043;-74
2022/07/08 02:41:18;;;;;;;5.38;4.88;;;;;;;;;;5040011;28;20198;-74
2022/07/08 02:43:44;;;;;;;4.60;4.20;;;;;;;;;;5036747;28;21234;-74
2022/07/08 02:46:09;;;;;;;4.90;4.50;;;;;;;;;;5026838;28;20040;-73
2022/07/08 02:48:34;;;;;;;5.43;4.07;;;;;;;;;;5038067;28;20032;-73
2022/07/08 02:51:00;;;;;;;4.32;4.03;;;;;;;;;;5038451;28;20040;-73
2022/07/08 02:53:26;;;;;;;5.45;4.95;;;;;;;;;;5039128;28;20444;-74
2022/07/08 02:55:51;;;;;;;4.88;4.47;;;;;;;;;;5031742;28;20025;-73
2022/07/08 02:58:16;;;;;;;4.60;4.20;;;;;;;;;;5032792;28;20037;-74
2022/07/08 03:00:42;;;;;;;5.10;4.70;;;;;;;;;;5033139;28;20061;-74
2022/07/08 03:03:07;;;;;;;4.78;4.43;;;;;;;;;;5040769;28;20029;-73
2022/07/08 03:05:32;;;;;;;4.93;4.40;;;;;;;;;;5038849;28;20025;-74
2022/07/08 03:07:58;;;;;;;4.95;4.18;;;;;;;;;;5033262;28;20090;-74
2022/07/08 03:10:23;;;;;;;5.32;4.88;;;;;;;;;;5033530;28;20021;-74
2022/07/08 03:12:48;;;;;;;4.68;4.20;;;;;;;;;;5039256;28;20040;-74
2022/07/08 03:15:14;;;;;;;4.70;4.00;;;;;;;;;;5039483;28;20136;-73
2022/07/08 03:17:39;;;;;;;3.90;3.70;;;;;;;;;;5033185;28;20052;-74
2022/07/08 03:20:05;;;;;;;4.50;4.10;;;;;;;;;;5033282;28;20033;-74
2022/07/08 03:22:31;;;;;;;4.13;3.83;;;;;;;;;;5037934;28;20048;-73
2022/07/08 03:24:56;;;;;;;4.43;4.10;;;;;;;;;;5038536;28;20060;-74
2022/07/08 03:27:21;;;;;;;5.80;4.07;;;;;;;;;;5038836;28;20436;-73
2022/07/08 03:29:47;;;;;;;4.38;4.07;;;;;;;;;;5039074;28;20562;-74
2022/07/08 03:32:12;;;;;;;6.18;4.22;;;;;;;;;;5014727;28;20032;-72
2022/07/08 03:34:37;;;;;;;4.25;3.95;;;;;;;;;;5035039;28;20451;-73
2022/07/08 03:37:03;;;;;;;4.13;3.72;;;;;;;;;;5038625;28;20393;-73
2022/07/08 03:39:28;;;;;;;5.20;4.70;;;;;;;;;;5038685;28;20348;-72
2022/07/08 03:41:53;;;;;;;4.65;4.25;;;;;;;;;;5029316;28;20035;-73
2022/07/08 03:44:19;;;;;;;4.57;4.22;;;;;;;;;;5040032;28;20024;-74
2022/07/08 03:46:44;;;;;;;4.18;3.88;;;;;;;;;;5034701;28;20140;-74
2022/07/08 03:49:09;;;;;;;4.43;3.75;;;;;;;;;;5028762;28;20027;-75
2022/07/08 03:51:35;;;;;;;5.45;3.97;;;;;;;;;;5039158;28;20690;-75
2022/07/08 03:54:00;;;;;;;4.60;4.10;;;;;;;;;;5039849;28;20124;-75
2022/07/08 03:56:26;;;;;;;4.40;4.10;;;;;;;;;;5039839;28;20075;-75
2022/07/08 03:58:51;;;;;;;4.60;4.22;;;;;;;;;;5038541;28;20062;-74
2022/07/08 04:01:17;;;;;;;3.75;3.30;;;;;;;;;;5038735;28;20108;-73
2022/07/08 04:03:42;;;;;;;4.25;3.85;;;;;;;;;;5038958;28;20364;-75
2022/07/08 04:06:07;;;;;;;9.18;3.85;;;;;;;;;;5028648;28;20028;-74
2022/07/08 04:08:33;;;;;;;4.60;4.00;;;;;;;;;;5039437;28;20045;-73
2022/07/08 04:10:58;;;;;;;4.75;3.95;;;;;;;;;;5035528;28;20424;-74
2022/07/08 04:13:27;;;;;;;5.30;4.20;;;;;;;;;;5025303;28;20057;-74
2022/07/08 04:15:52;;;;;;;5.85;4.00;;;;;;;;;;5025097;28;20025;-74
2022/07/08 04:18:17;;;;;;;4.38;4.00;;;;;;;;;;5026106;28;20025;-73
2022/07/08 04:20:43;;;;;;;4.53;3.85;;;;;;;;;;5029620;28;20120;-73
2022/07/08 04:23:08;;;;;;;4.20;3.80;;;;;;;;;;5032174;28;20021;-73
2022/07/08 04:25:33;;;;;;;4.35;3.95;;;;;;;;;;5042038;28;20067;-73
2022/07/08 04:27:59;;;;;;;4.25;3.95;;;;;;;;;;5041359;28;20061;-73
2022/07/08 04:30:25;;;;;;;5.25;4.50;;;;;;;;;;5041236;28;20024;-74
2022/07/08 04:32:50;;;;;;;4.95;4.45;;;;;;;;;;5030538;28;20033;-74
2022/07/08 04:35:15;;;;;;;12.57;4.25;;;;;;;;;;5030709;28;20025;-73
2022/07/08 04:37:41;;;;;;;6.22;4.68;;;;;;;;;;5041474;28;20332;-73
2022/07/08 04:40:07;;;;;;;4.82;4.28;;;;;;;;;;5032400;28;20332;-73
2022/07/08 04:42:32;;;;;;;5.20;4.30;;;;;;;;;;5030628;28;20029;-72
2022/07/08 04:44:57;;;;;;;6.88;4.72;;;;;;;;;;5031013;28;20333;-72
2022/07/08 04:47:23;;;;;;;6.38;5.03;;;;;;;;;;5037553;28;20028;-72
2022/07/08 04:49:48;;;;;;;7.10;4.72;;;;;;;;;;5032811;28;20081;-72
2022/07/08 04:52:13;;;;;;;5.60;5.20;;;;;;;;;;5039751;28;20112;-73
2022/07/08 04:54:39;;;;;;;6.15;5.65;;;;;;;;;;5029523;28;20029;-72
2022/07/08 04:57:05;;;;;;;6.38;5.85;;;;;;;;;;5028337;28;20459;-73
2022/07/08 04:59:31;;;;;;;6.22;5.63;;;;;;;;;;5027592;28;20025;-73
2022/07/08 05:01:56;;;;;;;6.40;5.80;;;;;;;;;;5029251;28;20059;-74
2022/07/08 05:04:21;;;;;;;7.60;6.20;;;;;;;;;;5028997;28;20462;-73
2022/07/08 05:06:47;;;;;;;9.18;8.30;;;;;;;;;;5028683;28;20079;-71
2022/07/08 05:09:13;;;;;;;7.10;6.50;;;;;;;;;;5036043;28;20068;-71
2022/07/08 05:11:38;;;;;;;6.40;5.90;;;;;;;;;;5030541;28;20029;-73
2022/07/08 05:14:03;;;;;;;6.03;5.43;;;;;;;;;;5040922;28;20112;-74
2022/07/08 05:16:29;;;;;;;7.60;4.88;;;;;;;;;;5040310;28;20737;-73
2022/07/08 05:18:54;;;;;;;7.20;5.20;;;;;;;;;;5041442;28;20351;-71
2022/07/08 05:21:19;;;;;;;7.72;5.72;;;;;;;;;;5041055;28;20025;-72
2022/07/08 05:23:45;;;;;;;5.97;5.50;;;;;;;;;;5041336;28;20031;-72
2022/07/08 05:26:10;;;;;;;5.82;5.43;;;;;;;;;;5040035;28;20025;-71
2022/07/08 05:28:35;;;;;;;8.73;5.30;;;;;;;;;;5033733;28;20040;-72
2022/07/08 05:31:01;;;;;;;6.40;5.25;;;;;;;;;;5036862;28;20090;-72
2022/07/08 05:33:26;;;;;;;5.90;5.40;;;;;;;;;;5033426;28;20424;-73
2022/07/08 05:35:51;;;;;;;10.65;9.65;;;;;;;;;;5029374;28;20428;-72
2022/07/08 05:38:17;;;;;;;9.63;8.73;;;;;;;;;;5030238;28;20111;-73
2022/07/08 05:40:42;;;;;;;7.82;7.22;;;;;;;;;;5030939;28;20099;-73
2022/07/08 05:43:08;;;;;;;8.25;7.55;;;;;;;;;;5029507;28;20986;-74
2022/07/08 05:45:33;;;;;;;5.80;5.30;;;;;;;;;;5029396;28;20036;-73
2022/07/08 05:47:59;;;;;;;5.78;5.28;;;;;;;;;;5038094;28;20048;-72
2022/07/08 05:50:24;;;;;;;5.55;5.05;;;;;;;;;;5040558;28;20427;-72
2022/07/08 05:52:49;;;;;;;6.18;5.57;;;;;;;;;;5029778;28;20090;-74
2022/07/08 05:55:15;;;;;;;7.07;6.38;;;;;;;;;;5029488;28;20116;-72
2022/07/08 05:57:40;;;;;;;6.38;5.70;;;;;;;;;;5036383;28;20405;-72
2022/07/08 06:00:06;;;;;;;6.18;5.65;;;;;;;;;;5030801;28;20047;-72
2022/07/08 06:02:31;;;;;;;7.80;7.13;;;;;;;;;;5040428;28;20175;-73
2022/07/08 06:04:56;;;;;;;7.22;6.53;;;;;;;;;;5025422;28;20028;-74
2022/07/08 06:07:22;;;;;;;7.03;6.43;;;;;;;;;;5039655;28;20123;-75
2022/07/08 06:09:47;;;;;;;7.28;6.25;;;;;;;;;;5041330;28;20068;-73
2022/07/08 06:12:13;;;;;;;7.60;7.00;;;;;;;;;;5040625;28;20079;-74
2022/07/08 06:14:38;;;;;;;7.68;6.85;;;;;;;;;;5040049;28;20069;-72
2022/07/08 06:17:03;;;;;;;7.15;6.53;;;;;;;;;;5039830;28;20029;-74
2022/07/08 06:19:29;;;;;;;9.60;8.90;;;;;;;;;;5040358;28;20037;-74
2022/07/08 06:21:54;;;;;;;10.13;9.25;;;;;;;;;;5040297;28;20029;-73
2022/07/08 06:24:20;;;;;;;7.57;6.88;;;;;;;;;;5039220;28;20057;-75
2022/07/08 06:26:46;;;;;;;7.43;6.82;;;;;;;;;;5039814;28;20033;-75
2022/07/08 06:29:12;;;;;;;6.13;5.63;;;;;;;;;;5040456;28;20041;-75
2022/07/08 06:31:38;;;;;;;5.75;5.35;;;;;;;;;;5040261;28;20055;-75
2022/07/08 06:34:04;;;;;;;5.78;5.28;;;;;;;;;;5039925;28;20032;-75
2022/07/08 06:36:29;;;;;;;6.38;5.78;;;;;;;;;;5040295;28;20761;-74
2022/07/08 06:38:55;;;;;;;6.47;5.97;;;;;;;;;;5039953;28;20398;-74
2022/07/08 06:41:20;;;;;;;7.07;6.00;;;;;;;;;;5040533;28;20021;-74
2022/07/08 06:43:46;;;;;;;6.35;5.85;;;;;;;;;;5040567;28;20375;-74
2022/07/08 06:46:11;;;;;;;6.45;5.82;;;;;;;;;;5040615;28;20110;-74
2022/07/08 06:48:37;;;;;;;6.90;5.57;;;;;;;;;;5040827;28;20036;-75
2022/07/08 06:51:02;;;;;;;6.22;5.72;;;;;;;;;;5040774;28;20037;-76
2022/07/08 06:54:34;;;;;;;7.97;5.85;;;;;;;;;;5029009;28;23315;-74
2022/07/08 06:56:13;;;;;;;6.07;5.57;;;;;;;;;;5040330;28;20037;-74
2022/07/08 06:58:38;;;;;;;5.60;5.20;;;;;;;;;;5022629;28;20349;-74
2022/07/08 07:01:04;;;;;;;6.20;5.60;;;;;;;;;;5036650;28;20043;-74
2022/07/08 07:03:29;;;;;;;6.00;5.50;;;;;;;;;;5040398;28;20029;-74
2022/07/08 07:05:55;;;;;;;6.57;5.78;;;;;;;;;;5038899;28;20025;-76
2022/07/08 07:08:20;;;;;;;5.65;5.15;;;;;;;;;;5039989;28;20033;-74
2022/07/08 07:10:45;;;;;;;8.18;5.55;;;;;;;;;;5039600;28;20119;-75
2022/07/08 07:13:11;;;;;;;7.75;5.60;;;;;;;;;;5039073;28;20037;-76
2022/07/08 07:15:36;;;;;;;5.97;5.40;;;;;;;;;;5039757;28;20017;-74
2022/07/08 07:18:01;;;;;;;6.20;5.70;;;;;;;;;;5039309;28;20108;-74
2022/07/08 07:20:26;;;;;;;6.55;5.68;;;;;;;;;;5039652;28;20116;-75
2022/07/08 07:22:52;;;;;;;6.15;5.30;;;;;;;;;;5038253;28;20452;-75
2022/07/08 07:25:17;;;;;;;6.20;5.70;;;;;;;;;;5039924;28;20451;-75
2022/07/08 07:27:43;;;;;;;5.40;4.90;;;;;;;;;;5039100;28;20033;-74
2022/07/08 07:30:08;;;;;;;5.43;4.93;;;;;;;;;;5039305;28;20021;-74
2022/07/08 07:32:34;;;;;;;5.07;4.68;;;;;;;;;;5038814;28;20081;-75
2022/07/08 07:34:59;;;;;;;5.45;4.90;;;;;;;;;;5038841;28;20037;-74
2022/07/08 07:37:24;;;;;;;5.65;5.18;;;;;;;;;;5039425;28;20105;-73
2022/07/08 07:39:50;;;;;;;5.55;5.15;;;;;;;;;;5039869;28;20462;-74
2022/07/08 07:42:15;;;;;;;6.88;5.22;;;;;;;;;;5026474;28;20452;-75
2022/07/08 07:44:40;;;;;;;5.07;4.68;;;;;;;;;;5024887;28;20356;-75
2022/07/08 07:47:06;;;;;;;6.88;6.22;;;;;;;;;;5027282;28;20071;-74
2022/07/08 07:49:31;;;;;;;6.53;5.93;;;;;;;;;;5031715;28;20427;-73
2022/07/08 07:51:57;;;;;;;7.60;5.05;;;;;;;;;;5025241;28;20107;-74
2022/07/08 07:54:22;;;;;;;5.68;4.93;;;;;;;;;;5027689;28;20123;-73
2022/07/08 07:56:47;;;;;;;5.05;4.55;;;;;;;;;;5030622;28;20036;-73
2022/07/08 07:59:13;;;;;;;5.13;4.72;;;;;;;;;;5037249;28;20749;-75
2022/07/08 08:01:38;;;;;;;5.13;4.75;;;;;;;;;;5031756;28;20450;-73
2022/07/08 08:04:04;;;;;;;5.05;4.65;;;;;;;;;;5030605;28;20021;-74
2022/07/08 08:06:29;;;;;;;5.10;4.70;;;;;;;;;;5029542;28;20083;-73
2022/07/08 08:08:56;;;;;;;5.15;4.75;;;;;;;;;;5028437;28;20037;-74
2022/07/08 08:11:21;;;;;;;5.50;5.00;;;;;;;;;;5030195;28;20051;-73
2022/07/08 08:13:46;;;;;;;5.28;4.78;;;;;;;;;;5030675;28;20460;-74
2022/07/08 08:16:12;;;;;;;6.20;5.68;;;;;;;;;;5029009;28;20025;-72
2022/07/08 08:18:37;;;;;;;5.80;4.40;;;;;;;;;;5030620;28;20027;-73
2022/07/08 08:21:02;;;;;;;5.60;5.10;;;;;;;;;;5030348;28;20025;-73
2022/07/08 08:23:28;;;;;;;5.50;5.03;;;;;;;;;;5029324;28;20036;-73
2022/07/08 08:25:53;;;;;;;5.57;4.63;;;;;;;;;;5030618;28;20395;-74
2022/07/08 08:28:19;;;;;;;4.68;4.35;;;;;;;;;;5029768;28;20033;-73
2022/07/08 08:30:44;;;;;;;5.65;5.15;;;;;;;;;;5028996;28;20021;-72
2022/07/08 08:33:09;;;;;;;5.35;4.95;;;;;;;;;;5032411;28;20084;-74
2022/07/08 08:35:35;;;;;;;4.90;4.50;;;;;;;;;;5028272;28;20028;-75
2022/07/08 08:38:00;;;;;;;4.43;4.13;;;;;;;;;;5031654;28;20024;-75
2022/07/08 08:40:27;;;;;;;5.13;4.55;;;;;;;;;;5031341;28;20060;-72
2022/07/08 08:42:52;;;;;;;5.22;4.70;;;;;;;;;;5038761;28;20021;-74
2022/07/08 08:45:17;;;;;;;5.07;4.38;;;;;;;;;;5029640;28;20040;-74
2022/07/08 08:47:45;;;;;;;4.57;4.18;;;;;;;;;;5030251;28;20032;-76
2022/07/08 08:52:55;;;;;;;4.78;4.47;;;;;;;;;;5037375;28;20064;-73
2022/07/08 08:55:26;;;;;;;4.18;3.78;;;;;;;;;;5025886;28;20088;-73
2022/07/08 08:57:52;;;;;;;4.47;4.18;;;;;;;;;;5040963;28;20534;-73
2022/07/08 09:00:17;;;;;;;5.75;4.07;;;;;;;;;;5042255;28;20116;-73
2022/07/08 09:02:43;;;;;;;5.40;4.70;;;;;;;;;;5031954;28;20120;-76
2022/07/08 09:05:08;;;;;;;4.95;4.55;;;;;;;;;;5028887;28;20028;-75
2022/07/08 09:07:34;;;;;;;5.10;4.70;;;;;;;;;;5038034;28;20033;-73
2022/07/08 09:10:00;;;;;;;4.53;4.13;;;;;;;;;;5040546;28;20042;-74
2022/07/08 09:12:25;;;;;;;5.75;4.60;;;;;;;;;;5032165;28;20044;-74
2022/07/08 09:14:51;;;;;;;6.18;4.40;;;;;;;;;;5030742;28;20423;-74
2022/07/08 09:17:17;;;;;;;4.72;4.32;;;;;;;;;;5042137;28;20032;-74
2022/07/08 09:19:44;;;;;;;4.93;4.50;;;;;;;;;;5042350;28;20025;-73
2022/07/08 09:22:09;;;;;;;5.07;4.50;;;;;;;;;;5042189;28;20053;-75
2022/07/08 09:24:35;;;;;;;4.35;4.05;;;;;;;;;;5033005;28;20087;-75
2022/07/08 09:27:07;;;;;;;4.55;4.15;;;;;;;;;;5034153;28;20511;-74
2022/07/08 09:29:33;;;;;;;6.97;5.10;;;;;;;;;;5020369;28;20349;-73
2022/07/08 09:32:11;;;;;;;6.68;4.30;;;;;;;;;;5038647;28;20033;-74
2022/07/08 09:34:36;;;;;;;4.88;4.47;;;;;;;;;;5039690;28;20025;-75
2022/07/08 09:37:09;;;;;;;6.93;4.35;;;;;;;;;;5031808;28;20037;-75
2022/07/08 09:39:34;;;;;;;4.25;3.85;;;;;;;;;;5028522;28;20025;-75
2022/07/08 09:41:59;;;;;;;4.43;4.03;;;;;;;;;;5029611;28;20036;-75
2022/07/08 09:44:25;;;;;;;4.50;4.10;;;;;;;;;;5029928;28;20032;-75
2022/07/08 09:46:50;;;;;;;4.22;3.90;;;;;;;;;;5029667;28;20041;-75
2022/07/08 09:49:28;;;;;;;4.70;4.13;;;;;;;;;;5028131;28;20436;-75
2022/07/08 09:51:54;;;;;;;4.20;3.90;;;;;;;;;;5028401;28;20049;-75
2022/07/08 09:54:21;;;;;;;4.50;4.10;;;;;;;;;;5028818;28;20021;-73
2022/07/08 09:57:05;;;;;;;4.25;3.53;;;;;;;;;;5029145;28;20029;-75
2022/07/08 09:59:31;;;;;;;4.30;3.58;;;;;;;;;;5030430;28;20618;-76
2022/07/08 10:01:56;;;;;;;3.75;3.45;;;;;;;;;;5033439;28;20029;-74
2022/07/08 10:04:24;;;;;;;3.55;3.28;;;;;;;;;;5027493;28;20025;-75
2022/07/08 10:06:50;;;;;;;4.00;3.70;;;;;;;;;;5031634;28;20815;-78
2022/07/08 10:09:16;;;;;;;4.03;3.72;;;;;;;;;;5040144;28;20040;-77
2022/07/08 10:11:42;;;;;;;3.75;3.45;;;;;;;;;;5027344;28;20025;-76
2022/07/08 10:14:11;;;;;;;4.72;4.32;;;;;;;;;;5024121;28;20167;-77
2022/07/08 10:16:38;;;;;;;4.40;3.70;;;;;;;;;;5027082;28;20029;-75
2022/07/08 10:19:05;;;;;;;3.60;3.30;;;;;;;;;;5029233;28;20025;-76
2022/07/08 10:21:32;;;;;;;4.25;3.85;;;;;;;;;;5026808;28;20063;-76
2022/07/08 10:23:58;;;;;;;4.25;3.92;;;;;;;;;;5028158;28;20119;-76
2022/07/08 10:26:33;;;;;;;3.92;3.50;;;;;;;;;;5028471;28;20547;-74
2022/07/08 10:29:03;;;;;;;4.25;3.92;;;;;;;;;;5025434;28;20455;-75
2022/07/08 10:31:29;;;;;;;3.80;3.38;;;;;;;;;;5025847;28;20045;-76
2022/07/08 10:34:01;;;;;;;4.47;3.92;;;;;;;;;;5028740;28;20086;-82
2022/07/08 10:36:26;;;;;;;3.80;3.50;;;;;;;;;;5040831;28;20036;-77
2022/07/08 10:38:54;;;;;;;4.35;3.33;;;;;;;;;;5031636;28;20078;-79
2022/07/08 10:41:20;;;;;;;6.28;3.50;;;;;;;;;;5039116;28;20036;-73
2022/07/08 10:43:50;;;;;;;4.28;3.20;;;;;;;;;;5041547;28;20061;-74
2022/07/08 10:46:17;;;;;;;3.60;3.30;;;;;;;;;;5038302;28;20018;-73
2022/07/08 10:48:45;;;;;;;3.50;3.20;;;;;;;;;;5027924;28;20467;-77
2022/07/08 10:51:25;;;;;;;3.28;3.08;;;;;;;;;;5025911;28;20021;-72
2022/07/08 10:53:50;;;;;;;4.20;3.80;;;;;;;;;;5027808;28;20059;-73
2022/07/08 10:56:36;;;;;;;3.50;3.30;;;;;;;;;;5032809;28;21141;-74
2022/07/08 10:59:20;;;;;;;6.78;3.33;;;;;;;;;;5018214;28;20044;-73
2022/07/08 11:01:51;;;;;;;4.35;3.25;;;;;;;;;;5027287;28;20126;-77
2022/07/08 11:04:31;;;;;;;3.92;2.83;;;;;;;;;;5025997;28;20025;-75
2022/07/08 11:07:17;;;;;;;3.22;3.03;;;;;;;;;;5032522;28;20040;-75
2022/07/08 11:09:44;;;;;;;2.80;2.60;;;;;;;;;;5023916;28;20057;-77
2022/07/08 11:12:12;;;;;;;3.10;2.78;;;;;;;;;;5039124;28;20025;-75
2022/07/08 11:14:44;;;;;;;3.03;2.53;;;;;;;;;;5039939;28;20028;-73
2022/07/08 11:17:20;;;;;;;3.20;2.90;;;;;;;;;;5038736;28;20041;-76
2022/07/08 11:19:46;;;;;;;3.72;2.80;;;;;;;;;;5039263;28;20024;-77
2022/07/08 11:22:12;;;;;;;2.78;2.58;;;;;;;;;;5039124;28;20025;-75
2022/07/08 11:24:37;;;;;;;2.90;2.60;;;;;;;;;;5038617;28;20091;-75
2022/07/08 11:27:03;;;;;;;2.78;2.58;;;;;;;;;;5038221;28;20065;-79
2022/07/08 11:29:29;;;;;;;4.50;3.20;;;;;;;;;;5031852;28;20032;-77
2022/07/08 11:31:58;;;;;;;2.70;2.50;;;;;;;;;;5035922;28;20033;-76
2022/07/08 11:34:24;;;;;;;3.33;3.03;;;;;;;;;;5031933;28;20082;-76
2022/07/08 11:36:54;;;;;;;2.58;2.38;;;;;;;;;;5024789;28;20036;-78
2022/07/08 11:39:19;;;;;;;2.97;2.78;;;;;;;;;;5027335;28;20036;-77
2022/07/08 11:41:45;;;;;;;2.85;2.58;;;;;;;;;;5024990;28;20116;-76
2022/07/08 11:44:11;;;;;;;3.38;2.40;;;;;;;;;;5025698;28;20116;-77
2022/07/08 11:46:43;;;;;;;2.97;2.78;;;;;;;;;;5024637;28;20024;-75
2022/07/08 11:49:09;;;;;;;2.90;2.70;;;;;;;;;;5026046;28;20028;-76
2022/07/08 11:51:35;;;;;;;3.25;2.97;;;;;;;;;;5024606;28;20043;-76
2022/07/08 11:54:00;;;;;;;2.88;2.67;;;;;;;;;;5025310;28;20033;-76
2022/07/08 11:56:25;;;;;;;2.88;2.65;;;;;;;;;;5025228;28;20099;-78
2022/07/08 11:58:52;;;;;;;3.47;2.70;;;;;;;;;;5028311;28;20094;-78
2022/07/08 12:01:19;;;;;;;3.85;3.00;;;;;;;;;;5025877;28;20048;-78
2022/07/08 12:03:45;;;;;;;2.80;2.60;;;;;;;;;;5025232;28;20033;-79
2022/07/08 12:06:10;;;;;;;4.43;3.22;;;;;;;;;;5028041;28;20039;-78
2022/07/08 12:08:40;;;;;;;4.18;3.22;;;;;;;;;;5029902;28;20040;-76
2022/07/08 12:11:19;;;;;;;3.35;2.90;;;;;;;;;;5037994;28;20344;-75
2022/07/08 12:13:49;;;;;;;3.10;2.70;;;;;;;;;;5039432;28;20017;-75
2022/07/08 12:16:33;;;;;;;2.67;2.47;;;;;;;;;;5038050;28;20032;-76
2022/07/08 12:18:59;;;;;;;2.63;2.42;;;;;;;;;;5029171;28;20496;-75
2022/07/08 12:21:24;;;;;;;1.92;1.83;;;;;;;;;;5029324;28;20100;-76
2022/07/08 12:24:02;;;;;;;2.50;2.30;;;;;;;;;;5023534;28;20035;-73
2022/07/08 12:26:28;;;;;;;2.58;2.30;;;;;;;;;;5024394;28;20024;-73
2022/07/08 12:28:54;;;;;;;2.15;2.00;;;;;;;;;;5026475;28;20384;-71
2022/07/08 12:31:32;;;;;;;2.20;2.00;;;;;;;;;;5025963;28;20389;-72
2022/07/08 12:34:01;;;;;;;2.97;1.90;;;;;;;;;;5024638;28;20029;-72
2022/07/08 12:36:27;;;;;;;2.28;2.17;;;;;;;;;;5024920;28;20021;-72
2022/07/08 12:38:54;;;;;;;2.20;2.10;;;;;;;;;;5026777;28;20472;-72
2022/07/08 12:41:22;;;;;;;4.75;2.85;;;;;;;;;;5041015;28;20029;-71
2022/07/08 12:43:47;;;;;;;3.33;2.83;;;;;;;;;;5047439;28;20020;-72
2022/07/08 12:46:13;;;;;;;2.92;2.70;;;;;;;;;;5045946;28;20056;-70
2022/07/08 12:48:38;;;;;;;3.33;2.90;;;;;;;;;;5029986;28;20154;-72
2022/07/08 12:51:04;;;;;;;3.60;3.30;;;;;;;;;;5028759;28;20029;-74
2022/07/08 12:53:29;;;;;;;5.40;3.20;;;;;;;;;;5027894;28;20037;-76
2022/07/08 12:55:55;;;;;;;3.65;3.22;;;;;;;;;;5030843;28;20359;-74
2022/07/08 12:58:24;;;;;;;5.22;4.05;;;;;;;;;;5029342;28;20085;-76
2022/07/08 13:00:50;;;;;;;6.57;4.07;;;;;;;;;;5028135;28;20127;-75
2022/07/08 13:03:15;;;;;;;11.23;7.93;;;;;;;;;;5031499;28;20123;-78
2022/07/08 13:05:40;;;;;;;23.20;14.82;;;;;;;;;;5020411;28;20036;-75
2022/07/08 13:08:08;;;;;;;18.55;13.15;;;;;;;;;;5021218;28;20048;-78
2022/07/08 13:10:33;;;;;;;8.05;7.18;;;;;;;;;;5032364;28;20093;-78
2022/07/08 13:12:59;;;;;;;4.82;4.38;;;;;;;;;;5028956;28;20037;-75
2022/07/08 13:15:24;;;;;;;4.38;3.97;;;;;;;;;;5030445;28;20111;-75
2022/07/08 13:17:49;;;;;;;6.78;6.18;;;;;;;;;;5028242;28;20060;-76
2022/07/08 13:20:15;;;;;;;7.43;6.50;;;;;;;;;;5027092;28;20166;-73
2022/07/08 13:22:40;;;;;;;6.55;4.95;;;;;;;;;;5019089;28;20036;-72
2022/07/08 13:25:06;;;;;;;5.28;4.78;;;;;;;;;;5026568;28;20444;-73
2022/07/08 13:27:31;;;;;;;6.82;4.93;;;;;;;;;;5027677;28;21073;-75
2022/07/08 13:29:57;;;;;;;4.50;4.10;;;;;;;;;;5027037;28;20057;-74
2022/07/08 13:32:23;;;;;;;4.38;4.07;;;;;;;;;;5027016;28;20067;-77
2022/07/08 13:34:49;;;;;;;4.75;3.90;;;;;;;;;;5024463;28;20048;-75
2022/07/08 13:37:14;;;;;;;4.63;4.03;;;;;;;;;;5020856;28;20429;-74
2022/07/08 13:39:40;;;;;;;4.40;4.00;;;;;;;;;;5039741;28;20025;-75
2022/07/08 13:42:05;;;;;;;4.40;4.00;;;;;;;;;;5031140;28;20056;-76
2022/07/08 13:44:30;;;;;;;4.65;4.25;;;;;;;;;;5029115;28;20102;-76
2022/07/08 13:46:56;;;;;;;3.92;3.63;;;;;;;;;;5028573;28;20029;-76
2022/07/08 13:49:21;;;;;;;4.30;4.00;;;;;;;;;;5029478;28;20132;-76
2022/07/08 13:51:46;;;;;;;5.05;4.55;;;;;;;;;;5030696;28;20059;-76
2022/07/08 13:54:12;;;;;;;10.65;9.57;;;;;;;;;;5030129;28;20115;-79
2022/07/08 13:56:37;;;;;;;5.20;4.70;;;;;;;;;;5029988;28;20452;-77
2022/07/08 13:59:03;;;;;;;4.03;3.72;;;;;;;;;;5029865;28;20030;-77
2022/07/08 14:01:28;;;;;;;6.97;3.65;;;;;;;;;;5030121;28;20039;-77
2022/07/08 14:03:54;;;;;;;3.90;3.60;;;;;;;;;;5033748;28;20036;-78
2022/07/08 14:06:21;;;;;;;4.40;4.00;;;;;;;;;;5028677;28;20029;-76
2022/07/08 14:08:47;;;;;;;3.95;3.65;;;;;;;;;;5030856;28;20033;-78
2022/07/08 14:11:12;;;;;;;3.80;3.50;;;;;;;;;;5030237;28;20027;-76
2022/07/08 14:13:38;;;;;;;3.90;3.60;;;;;;;;;;5028805;28;20035;-77
2022/07/08 14:16:04;;;;;;;3.85;3.55;;;;;;;;;;5028600;28;20431;-77
2022/07/08 14:18:29;;;;;;;4.30;4.00;;;;;;;;;;5028892;28;20028;-77
2022/07/08 14:20:55;;;;;;;5.30;4.80;;;;;;;;;;5030152;28;20041;-76
2022/07/08 14:23:20;;;;;;;4.50;4.20;;;;;;;;;;5030732;28;20062;-75
2022/07/08 14:25:46;;;;;;;4.20;3.90;;;;;;;;;;5029044;28;20521;-76
2022/07/08 14:28:12;;;;;;;4.43;4.13;;;;;;;;;;5027070;28;20043;-76
2022/07/08 14:30:37;;;;;;;4.20;3.88;;;;;;;;;;5029698;28;20029;-77
2022/07/08 14:33:03;;;;;;;4.55;4.15;;;;;;;;;;5030871;28;20027;-76
2022/07/08 14:35:28;;;;;;;4.00;3.70;;;;;;;;;;5036124;28;20017;-74
2022/07/08 14:37:53;;;;;;;4.55;3.50;;;;;;;;;;5046679;28;20047;-76
2022/07/08 14:40:19;;;;;;;3.67;3.38;;;;;;;;;;5032312;28;20475;-77
2022/07/08 14:42:44;;;;;;;3.78;3.47;;;;;;;;;;5039954;28;20392;-75